sensor_id;sensor_type;location;lat;lon;timestamp;pressure;altitude;pressure_sealevel;temperature;humidity
62948;BME280;51940;52.126;-0.994;2022-07-11T00:00:13;101333.19;;;18.23;56.99
62948;BME280;51940;52.126;-0.994;2022-07-11T00:02:42;101329.20;;;18.19;56.91
62948;BME280;51940;52.126;-0.994;2022-07-11T00:05:08;101331.61;;;18.13;57.11
62948;BME280;51940;52.126;-0.994;2022-07-11T00:07:35;101331.92;;;18.09;57.12
62948;BME280;51940;52.126;-0.994;2022-07-11T00:10:03;101335.73;;;18.05;57.47
62948;BME280;51940;52.126;-0.994;2022-07-11T00:12:28;101338.91;;;17.93;57.76
62948;BME280;51940;52.126;-0.994;2022-07-11T00:14:55;101337.44;;;17.80;58.10
62948;BME280;51940;52.126;-0.994;2022-07-11T00:17:21;101337.04;;;17.71;58.46
62948;BME280;51940;52.126;-0.994;2022-07-11T00:19:47;101330.80;;;17.69;58.43
62948;BME280;51940;52.126;-0.994;2022-07-11T00:22:13;101333.39;;;17.62;58.69
62948;BME280;51940;52.126;-0.994;2022-07-11T00:24:38;101332.16;;;17.47;58.72
62948;BME280;51940;52.126;-0.994;2022-07-11T00:27:04;101333.17;;;17.39;58.67
62948;BME280;51940;52.126;-0.994;2022-07-11T00:29:31;101329.56;;;17.30;58.66
62948;BME280;51940;52.126;-0.994;2022-07-11T00:31:57;101330.30;;;17.19;58.82
62948;BME280;51940;52.126;-0.994;2022-07-11T00:34:23;101326.77;;;17.03;59.32
62948;BME280;51940;52.126;-0.994;2022-07-11T00:36:49;101326.17;;;16.89;59.82
62948;BME280;51940;52.126;-0.994;2022-07-11T00:39:15;101326.38;;;16.83;60.14
62948;BME280;51940;52.126;-0.994;2022-07-11T00:41:40;101328.71;;;16.78;60.38
62948;BME280;51940;52.126;-0.994;2022-07-11T00:44:06;101323.02;;;16.81;60.22
62948;BME280;51940;52.126;-0.994;2022-07-11T00:46:31;101324.67;;;16.85;60.25
62948;BME280;51940;52.126;-0.994;2022-07-11T00:48:58;101323.70;;;16.93;59.87
62948;BME280;51940;52.126;-0.994;2022-07-11T00:51:25;101327.63;;;16.94;60.14
62948;BME280;51940;52.126;-0.994;2022-07-11T00:53:53;101326.40;;;16.83;60.19
62948;BME280;51940;52.126;-0.994;2022-07-11T00:56:20;101325.10;;;16.68;60.26
62948;BME280;51940;52.126;-0.994;2022-07-11T00:58:50;101325.00;;;16.60;60.17
62948;BME280;51940;52.126;-0.994;2022-07-11T01:01:17;101325.16;;;16.61;60.20
62948;BME280;51940;52.126;-0.994;2022-07-11T01:03:43;101329.96;;;16.51;60.26
62948;BME280;51940;52.126;-0.994;2022-07-11T01:06:09;101327.80;;;16.46;60.40
62948;BME280;51940;52.126;-0.994;2022-07-11T01:08:37;101330.77;;;16.32;60.61
62948;BME280;51940;52.126;-0.994;2022-07-11T01:11:03;101327.39;;;16.26;60.62
62948;BME280;51940;52.126;-0.994;2022-07-11T01:13:29;101322.69;;;16.21;60.72
62948;BME280;51940;52.126;-0.994;2022-07-11T01:16:16;101323.27;;;16.14;60.94
62948;BME280;51940;52.126;-0.994;2022-07-11T01:18:47;101323.55;;;16.17;60.99
62948;BME280;51940;52.126;-0.994;2022-07-11T01:23:48;101324.94;;;16.24;60.75
62948;BME280;51940;52.126;-0.994;2022-07-11T01:26:15;101325.59;;;16.15;60.91
62948;BME280;51940;52.126;-0.994;2022-07-11T01:28:42;101321.35;;;16.01;61.35
62948;BME280;51940;52.126;-0.994;2022-07-11T01:31:07;101319.52;;;15.85;61.62
62948;BME280;51940;52.126;-0.994;2022-07-11T01:33:33;101316.23;;;15.69;61.95
62948;BME280;51940;52.126;-0.994;2022-07-11T01:36:01;101320.05;;;15.55;62.25
62948;BME280;51940;52.126;-0.994;2022-07-11T01:38:28;101315.38;;;15.48;62.72
62948;BME280;51940;52.126;-0.994;2022-07-11T01:40:54;101316.52;;;15.59;62.59
62948;BME280;51940;52.126;-0.994;2022-07-11T01:43:19;101314.35;;;15.72;62.19
62948;BME280;51940;52.126;-0.994;2022-07-11T01:45:45;101307.39;;;15.76;61.94
62948;BME280;51940;52.126;-0.994;2022-07-11T01:48:10;101307.48;;;15.67;62.14
62948;BME280;51940;52.126;-0.994;2022-07-11T01:50:36;101311.15;;;15.57;62.48
62948;BME280;51940;52.126;-0.994;2022-07-11T01:53:01;101312.30;;;15.43;62.76
62948;BME280;51940;52.126;-0.994;2022-07-11T01:55:28;101309.34;;;15.34;62.95
62948;BME280;51940;52.126;-0.994;2022-07-11T01:57:53;101308.52;;;15.25;63.26
62948;BME280;51940;52.126;-0.994;2022-07-11T02:00:19;101305.65;;;15.18;63.31
62948;BME280;51940;52.126;-0.994;2022-07-11T02:02:44;101309.74;;;15.26;63.33
62948;BME280;51940;52.126;-0.994;2022-07-11T02:05:10;101309.27;;;15.30;63.27
62948;BME280;51940;52.126;-0.994;2022-07-11T02:07:36;101312.06;;;15.27;63.54
62948;BME280;51940;52.126;-0.994;2022-07-11T02:10:20;101307.50;;;15.29;63.53
62948;BME280;51940;52.126;-0.994;2022-07-11T02:12:45;101307.44;;;15.38;63.23
62948;BME280;51940;52.126;-0.994;2022-07-11T02:15:11;101310.89;;;15.48;62.91
62948;BME280;51940;52.126;-0.994;2022-07-11T02:17:36;101307.70;;;15.47;62.89
62948;BME280;51940;52.126;-0.994;2022-07-11T02:20:02;101308.33;;;15.44;63.04
62948;BME280;51940;52.126;-0.994;2022-07-11T02:22:27;101306.22;;;15.36;63.24
62948;BME280;51940;52.126;-0.994;2022-07-11T02:24:55;101301.66;;;15.26;63.46
62948;BME280;51940;52.126;-0.994;2022-07-11T02:27:20;101297.04;;;15.18;63.68
62948;BME280;51940;52.126;-0.994;2022-07-11T02:29:46;101293.02;;;15.14;63.69
62948;BME280;51940;52.126;-0.994;2022-07-11T02:32:11;101289.23;;;15.08;63.76
62948;BME280;51940;52.126;-0.994;2022-07-11T02:34:37;101292.17;;;15.00;63.91
62948;BME280;51940;52.126;-0.994;2022-07-11T02:37:03;101290.31;;;14.89;64.03
62948;BME280;51940;52.126;-0.994;2022-07-11T02:39:28;101289.23;;;14.76;64.39
62948;BME280;51940;52.126;-0.994;2022-07-11T02:41:53;101292.04;;;14.64;64.70
62948;BME280;51940;52.126;-0.994;2022-07-11T02:44:19;101285.55;;;14.58;64.91
62948;BME280;51940;52.126;-0.994;2022-07-11T02:46:45;101287.86;;;14.53;65.09
62948;BME280;51940;52.126;-0.994;2022-07-11T02:49:10;101289.07;;;14.48;65.34
62948;BME280;51940;52.126;-0.994;2022-07-11T02:51:36;101280.27;;;14.48;65.52
62948;BME280;51940;52.126;-0.994;2022-07-11T02:54:01;101274.16;;;14.55;65.30
62948;BME280;51940;52.126;-0.994;2022-07-11T02:56:27;101273.55;;;14.57;65.33
62948;BME280;51940;52.126;-0.994;2022-07-11T02:58:52;101274.82;;;14.50;65.44
62948;BME280;51940;52.126;-0.994;2022-07-11T03:01:18;101274.86;;;14.41;65.59
62948;BME280;51940;52.126;-0.994;2022-07-11T03:03:45;101267.80;;;14.36;66.24
62948;BME280;51940;52.126;-0.994;2022-07-11T03:06:10;101265.48;;;14.43;66.06
62948;BME280;51940;52.126;-0.994;2022-07-11T03:08:37;101263.89;;;14.42;65.96
62948;BME280;51940;52.126;-0.994;2022-07-11T03:11:02;101263.31;;;14.36;65.81
62948;BME280;51940;52.126;-0.994;2022-07-11T03:13:28;101261.16;;;14.29;65.86
62948;BME280;51940;52.126;-0.994;2022-07-11T03:15:53;101260.52;;;14.26;65.99
62948;BME280;51940;52.126;-0.994;2022-07-11T03:18:19;101259.53;;;14.23;66.09
62948;BME280;51940;52.126;-0.994;2022-07-11T03:20:44;101253.52;;;14.18;66.20
62948;BME280;51940;52.126;-0.994;2022-07-11T03:23:10;101256.56;;;14.20;66.12
62948;BME280;51940;52.126;-0.994;2022-07-11T03:25:35;101253.80;;;14.23;66.01
62948;BME280;51940;52.126;-0.994;2022-07-11T03:28:01;101250.30;;;14.19;66.08
62948;BME280;51940;52.126;-0.994;2022-07-11T03:30:26;101248.36;;;14.17;66.15
62948;BME280;51940;52.126;-0.994;2022-07-11T03:32:52;101250.02;;;14.16;66.29
62948;BME280;51940;52.126;-0.994;2022-07-11T03:35:17;101252.03;;;14.14;66.58
62948;BME280;51940;52.126;-0.994;2022-07-11T03:38:01;101258.52;;;14.05;66.78
62948;BME280;51940;52.126;-0.994;2022-07-11T03:40:27;101259.56;;;13.99;67.01
62948;BME280;51940;52.126;-0.994;2022-07-11T03:42:53;101267.43;;;14.00;66.93
62948;BME280;51940;52.126;-0.994;2022-07-11T03:45:18;101265.86;;;14.06;66.69
62948;BME280;51940;52.126;-0.994;2022-07-11T03:47:44;101262.01;;;14.10;66.64
62948;BME280;51940;52.126;-0.994;2022-07-11T03:50:09;101262.30;;;14.13;66.76
62948;BME280;51940;52.126;-0.994;2022-07-11T03:52:35;101260.85;;;14.20;66.52
62948;BME280;51940;52.126;-0.994;2022-07-11T03:55:00;101260.52;;;14.20;66.69
62948;BME280;51940;52.126;-0.994;2022-07-11T03:57:26;101260.06;;;14.16;66.84
62948;BME280;51940;52.126;-0.994;2022-07-11T03:59:51;101260.34;;;14.19;67.10
62948;BME280;51940;52.126;-0.994;2022-07-11T04:02:17;101258.74;;;14.18;66.76
62948;BME280;51940;52.126;-0.994;2022-07-11T04:04:42;101256.27;;;14.09;66.93
62948;BME280;51940;52.126;-0.994;2022-07-11T04:07:08;101259.61;;;13.98;67.15
62948;BME280;51940;52.126;-0.994;2022-07-11T04:09:33;101259.87;;;13.87;67.24
62948;BME280;51940;52.126;-0.994;2022-07-11T04:11:59;101255.55;;;13.80;67.32
62948;BME280;51940;52.126;-0.994;2022-07-11T04:14:24;101253.73;;;13.81;67.51
62948;BME280;51940;52.126;-0.994;2022-07-11T04:16:50;101255.52;;;13.89;67.34
62948;BME280;51940;52.126;-0.994;2022-07-11T04:19:17;101260.96;;;13.94;67.30
62948;BME280;51940;52.126;-0.994;2022-07-11T04:21:42;101262.91;;;14.02;67.04
62948;BME280;51940;52.126;-0.994;2022-07-11T04:24:08;101260.88;;;14.12;66.71
62948;BME280;51940;52.126;-0.994;2022-07-11T04:26:34;101259.02;;;14.14;66.77
62948;BME280;51940;52.126;-0.994;2022-07-11T04:28:59;101257.45;;;14.13;66.76
62948;BME280;51940;52.126;-0.994;2022-07-11T04:31:25;101258.29;;;14.07;66.94
62948;BME280;51940;52.126;-0.994;2022-07-11T04:33:51;101260.33;;;14.05;67.00
62948;BME280;51940;52.126;-0.994;2022-07-11T04:36:16;101265.22;;;14.03;66.98
62948;BME280;51940;52.126;-0.994;2022-07-11T04:38:42;101263.09;;;14.44;66.32
62948;BME280;51940;52.126;-0.994;2022-07-11T04:41:10;101258.34;;;15.95;63.40
62948;BME280;51940;52.126;-0.994;2022-07-11T04:43:35;101253.24;;;17.26;60.48
62948;BME280;51940;52.126;-0.994;2022-07-11T04:46:04;101257.71;;;18.48;57.92
62948;BME280;51940;52.126;-0.994;2022-07-11T04:48:31;101255.76;;;19.78;54.94
62948;BME280;51940;52.126;-0.994;2022-07-11T04:50:56;101256.16;;;21.02;52.40
62948;BME280;51940;52.126;-0.994;2022-07-11T04:53:23;101256.10;;;22.26;49.65
62948;BME280;51940;52.126;-0.994;2022-07-11T04:55:48;101257.98;;;23.30;47.43
62948;BME280;51940;52.126;-0.994;2022-07-11T04:58:14;101259.79;;;24.38;45.13
62948;BME280;51940;52.126;-0.994;2022-07-11T05:00:40;101255.34;;;25.46;42.75
62948;BME280;51940;52.126;-0.994;2022-07-11T05:03:06;101259.56;;;26.32;41.01
62948;BME280;51940;52.126;-0.994;2022-07-11T05:05:31;101262.17;;;27.15;39.54
62948;BME280;51940;52.126;-0.994;2022-07-11T05:07:57;101264.99;;;28.11;37.68
62948;BME280;51940;52.126;-0.994;2022-07-11T05:10:23;101263.45;;;29.04;35.62
62948;BME280;51940;52.126;-0.994;2022-07-11T05:12:49;101263.27;;;29.98;33.88
62948;BME280;51940;52.126;-0.994;2022-07-11T05:15:14;101264.77;;;30.18;33.11
62948;BME280;51940;52.126;-0.994;2022-07-11T05:17:40;101263.33;;;29.92;32.88
62948;BME280;51940;52.126;-0.994;2022-07-11T05:20:06;101267.40;;;30.61;31.98
62948;BME280;51940;52.126;-0.994;2022-07-11T05:22:33;101267.27;;;31.48;30.75
62948;BME280;51940;52.126;-0.994;2022-07-11T05:24:58;101269.30;;;32.47;29.59
62948;BME280;51940;52.126;-0.994;2022-07-11T05:27:24;101266.96;;;33.45;28.28
62948;BME280;51940;52.126;-0.994;2022-07-11T05:29:49;101269.25;;;34.30;27.13
62948;BME280;51940;52.126;-0.994;2022-07-11T05:32:15;101275.94;;;34.91;26.10
62948;BME280;51940;52.126;-0.994;2022-07-11T05:34:40;101277.89;;;35.47;25.64
62948;BME280;51940;52.126;-0.994;2022-07-11T05:37:06;101279.61;;;36.00;24.78
62948;BME280;51940;52.126;-0.994;2022-07-11T05:39:32;101282.14;;;36.71;24.04
62948;BME280;51940;52.126;-0.994;2022-07-11T05:41:58;101278.36;;;37.23;23.41
62948;BME280;51940;52.126;-0.994;2022-07-11T05:44:23;101280.83;;;37.62;22.47
62948;BME280;51940;52.126;-0.994;2022-07-11T05:46:49;101281.79;;;38.10;21.89
62948;BME280;51940;52.126;-0.994;2022-07-11T05:49:15;101280.62;;;38.78;20.79
62948;BME280;51940;52.126;-0.994;2022-07-11T05:51:40;101280.77;;;39.41;20.25
62948;BME280;51940;52.126;-0.994;2022-07-11T05:54:06;101279.59;;;39.83;19.84
62948;BME280;51940;52.126;-0.994;2022-07-11T05:56:32;101285.55;;;40.14;19.68
62948;BME280;51940;52.126;-0.994;2022-07-11T05:58:58;101288.49;;;40.67;19.26
62948;BME280;51940;52.126;-0.994;2022-07-11T06:01:24;101293.89;;;41.08;18.57
62948;BME280;51940;52.126;-0.994;2022-07-11T06:03:49;101298.98;;;41.05;18.44
62948;BME280;51940;52.126;-0.994;2022-07-11T06:06:15;101292.94;;;41.33;18.36
62948;BME280;51940;52.126;-0.994;2022-07-11T06:08:43;101295.98;;;42.02;17.93
62948;BME280;51940;52.126;-0.994;2022-07-11T06:11:10;101297.64;;;42.54;17.40
62948;BME280;51940;52.126;-0.994;2022-07-11T06:13:40;101300.46;;;42.68;17.15
62948;BME280;51940;52.126;-0.994;2022-07-11T06:16:07;101300.30;;;42.77;16.82
62948;BME280;51940;52.126;-0.994;2022-07-11T06:18:35;101301.44;;;42.86;16.89
62948;BME280;51940;52.126;-0.994;2022-07-11T06:21:01;101300.57;;;43.02;16.85
62948;BME280;51940;52.126;-0.994;2022-07-11T06:23:27;101296.89;;;43.23;16.40
62948;BME280;51940;52.126;-0.994;2022-07-11T06:25:53;101299.41;;;43.45;16.29
62948;BME280;51940;52.126;-0.994;2022-07-11T06:28:19;101298.29;;;43.73;16.24
62948;BME280;51940;52.126;-0.994;2022-07-11T06:30:44;101297.73;;;43.97;15.83
62948;BME280;51940;52.126;-0.994;2022-07-11T06:33:10;101297.64;;;44.07;15.65
62948;BME280;51940;52.126;-0.994;2022-07-11T06:35:36;101300.48;;;44.20;15.59
62948;BME280;51940;52.126;-0.994;2022-07-11T06:38:01;101300.48;;;44.49;15.58
62948;BME280;51940;52.126;-0.994;2022-07-11T06:40:27;101299.03;;;44.73;15.39
62948;BME280;51940;52.126;-0.994;2022-07-11T06:42:52;101298.15;;;44.91;15.09
62948;BME280;51940;52.126;-0.994;2022-07-11T06:45:19;101298.36;;;45.03;15.07
62948;BME280;51940;52.126;-0.994;2022-07-11T06:47:45;101298.52;;;45.01;14.90
62948;BME280;51940;52.126;-0.994;2022-07-11T06:50:11;101301.20;;;45.05;15.03
62948;BME280;51940;52.126;-0.994;2022-07-11T06:52:36;101299.17;;;45.29;14.63
62948;BME280;51940;52.126;-0.994;2022-07-11T06:55:03;101300.41;;;45.47;14.73
62948;BME280;51940;52.126;-0.994;2022-07-11T06:57:28;101295.58;;;45.76;14.42
62948;BME280;51940;52.126;-0.994;2022-07-11T06:59:54;101295.75;;;45.81;14.16
62948;BME280;51940;52.126;-0.994;2022-07-11T07:02:21;101295.19;;;45.94;14.23
62948;BME280;51940;52.126;-0.994;2022-07-11T07:04:51;101293.58;;;46.05;13.50
62948;BME280;51940;52.126;-0.994;2022-07-11T07:07:20;101293.10;;;45.98;13.47
62948;BME280;51940;52.126;-0.994;2022-07-11T07:09:47;101294.98;;;45.95;13.48
62948;BME280;51940;52.126;-0.994;2022-07-11T07:12:14;101291.41;;;45.95;13.56
62948;BME280;51940;52.126;-0.994;2022-07-11T07:14:40;101288.55;;;46.01;13.79
62948;BME280;51940;52.126;-0.994;2022-07-11T07:17:06;101292.52;;;46.10;13.73
62948;BME280;51940;52.126;-0.994;2022-07-11T07:19:32;101294.32;;;46.01;13.36
62948;BME280;51940;52.126;-0.994;2022-07-11T07:21:57;101296.77;;;45.39;13.76
62948;BME280;51940;52.126;-0.994;2022-07-11T07:24:23;101295.73;;;44.77;14.33
62948;BME280;51940;52.126;-0.994;2022-07-11T07:26:48;101296.91;;;43.96;14.57
62948;BME280;51940;52.126;-0.994;2022-07-11T07:29:14;101290.40;;;42.84;15.89
62948;BME280;51940;52.126;-0.994;2022-07-11T07:31:39;101294.06;;;41.84;16.66
62948;BME280;51940;52.126;-0.994;2022-07-11T07:34:05;101296.04;;;40.68;17.61
62948;BME280;51940;52.126;-0.994;2022-07-11T07:36:30;101291.68;;;39.50;18.70
62948;BME280;51940;52.126;-0.994;2022-07-11T07:38:56;101291.94;;;38.52;19.50
62948;BME280;51940;52.126;-0.994;2022-07-11T07:41:21;101292.92;;;37.60;20.22
62948;BME280;51940;52.126;-0.994;2022-07-11T07:43:47;101298.64;;;36.83;21.36
62948;BME280;51940;52.126;-0.994;2022-07-11T07:46:17;101299.79;;;36.46;22.23
62948;BME280;51940;52.126;-0.994;2022-07-11T07:48:43;101302.77;;;35.96;22.96
62948;BME280;51940;52.126;-0.994;2022-07-11T07:51:09;101300.48;;;35.60;23.67
62948;BME280;51940;52.126;-0.994;2022-07-11T07:53:35;101302.75;;;35.36;23.89
62948;BME280;51940;52.126;-0.994;2022-07-11T07:56:03;101301.98;;;35.15;24.35
62948;BME280;51940;52.126;-0.994;2022-07-11T07:58:28;101303.63;;;34.84;24.88
62948;BME280;51940;52.126;-0.994;2022-07-11T08:00:55;101297.34;;;34.64;24.66
62948;BME280;51940;52.126;-0.994;2022-07-11T08:03:39;101300.69;;;34.42;25.23
62948;BME280;51940;52.126;-0.994;2022-07-11T08:06:04;101299.55;;;34.27;25.52
62948;BME280;51940;52.126;-0.994;2022-07-11T08:08:30;101298.27;;;34.10;25.99
62948;BME280;51940;52.126;-0.994;2022-07-11T08:10:55;101301.52;;;33.96;25.93
62948;BME280;51940;52.126;-0.994;2022-07-11T08:13:21;101306.27;;;33.77;26.02
62948;BME280;51940;52.126;-0.994;2022-07-11T08:15:47;101304.33;;;33.59;25.80
62948;BME280;51940;52.126;-0.994;2022-07-11T08:18:13;101304.02;;;33.34;26.40
62948;BME280;51940;52.126;-0.994;2022-07-11T08:20:38;101301.73;;;33.12;26.42
62948;BME280;51940;52.126;-0.994;2022-07-11T08:23:04;101300.55;;;32.85;27.12
62948;BME280;51940;52.126;-0.994;2022-07-11T08:25:31;101298.46;;;32.74;27.79
62948;BME280;51940;52.126;-0.994;2022-07-11T08:27:57;101302.36;;;32.71;28.15
62948;BME280;51940;52.126;-0.994;2022-07-11T08:30:23;101300.95;;;32.67;27.57
62948;BME280;51940;52.126;-0.994;2022-07-11T08:32:52;101300.44;;;32.72;27.37
62948;BME280;51940;52.126;-0.994;2022-07-11T08:35:17;101298.45;;;32.67;27.30
62948;BME280;51940;52.126;-0.994;2022-07-11T08:37:43;101295.39;;;32.65;27.02
62948;BME280;51940;52.126;-0.994;2022-07-11T08:40:09;101297.35;;;32.57;26.99
62948;BME280;51940;52.126;-0.994;2022-07-11T08:42:44;101294.56;;;32.49;26.75
62948;BME280;51940;52.126;-0.994;2022-07-11T08:45:16;101297.91;;;32.33;27.54
62948;BME280;51940;52.126;-0.994;2022-07-11T08:47:43;101297.96;;;32.18;27.46
62948;BME280;51940;52.126;-0.994;2022-07-11T08:50:11;101292.67;;;32.10;27.25
62948;BME280;51940;52.126;-0.994;2022-07-11T08:52:38;101290.48;;;32.03;27.32
62948;BME280;51940;52.126;-0.994;2022-07-11T08:55:05;101288.79;;;31.95;27.51
62948;BME280;51940;52.126;-0.994;2022-07-11T08:57:36;101289.32;;;32.03;27.01
62948;BME280;51940;52.126;-0.994;2022-07-11T09:00:05;101290.95;;;32.09;26.70
62948;BME280;51940;52.126;-0.994;2022-07-11T09:02:32;101288.13;;;32.15;26.65
62948;BME280;51940;52.126;-0.994;2022-07-11T09:04:59;101285.84;;;32.28;26.35
62948;BME280;51940;52.126;-0.994;2022-07-11T09:07:25;101282.35;;;32.34;26.29
62948;BME280;51940;52.126;-0.994;2022-07-11T09:09:52;101286.15;;;32.40;26.29
62948;BME280;51940;52.126;-0.994;2022-07-11T09:12:17;101282.93;;;32.37;26.41
62948;BME280;51940;52.126;-0.994;2022-07-11T09:14:48;101280.36;;;32.37;25.69
62948;BME280;51940;52.126;-0.994;2022-07-11T09:17:14;101281.10;;;32.37;26.17
62948;BME280;51940;52.126;-0.994;2022-07-11T09:19:40;101280.42;;;32.45;26.26
62948;BME280;51940;52.126;-0.994;2022-07-11T09:22:14;101281.20;;;32.50;26.88
62948;BME280;51940;52.126;-0.994;2022-07-11T09:25:06;101280.63;;;32.59;27.03
62948;BME280;51940;52.126;-0.994;2022-07-11T09:28:04;101272.98;;;32.47;26.44
62948;BME280;51940;52.126;-0.994;2022-07-11T09:30:31;101272.02;;;32.22;26.79
62948;BME280;51940;52.126;-0.994;2022-07-11T09:35:28;101265.44;;;31.96;26.79
62948;BME280;51940;52.126;-0.994;2022-07-11T09:37:55;101264.16;;;31.85;27.13
62948;BME280;51940;52.126;-0.994;2022-07-11T09:40:21;101262.59;;;31.84;27.18
62948;BME280;51940;52.126;-0.994;2022-07-11T09:42:49;101262.32;;;31.98;26.55
62948;BME280;51940;52.126;-0.994;2022-07-11T09:45:15;101261.20;;;32.04;25.91
62948;BME280;51940;52.126;-0.994;2022-07-11T09:47:46;101264.63;;;32.04;25.89
62948;BME280;51940;52.126;-0.994;2022-07-11T09:50:12;101265.81;;;32.22;25.93
62948;BME280;51940;52.126;-0.994;2022-07-11T09:52:38;101263.27;;;32.43;24.95
62948;BME280;51940;52.126;-0.994;2022-07-11T09:55:07;101262.94;;;32.48;25.26
62948;BME280;51940;52.126;-0.994;2022-07-11T09:57:37;101259.51;;;32.29;25.69
62948;BME280;51940;52.126;-0.994;2022-07-11T10:00:07;101259.05;;;32.05;25.57
62948;BME280;51940;52.126;-0.994;2022-07-11T10:02:34;101255.50;;;31.81;25.22
62948;BME280;51940;52.126;-0.994;2022-07-11T10:05:01;101258.05;;;31.80;25.33
62948;BME280;51940;52.126;-0.994;2022-07-11T10:07:28;101256.30;;;31.77;26.12
62948;BME280;51940;52.126;-0.994;2022-07-11T10:09:53;101257.96;;;32.03;25.48
62948;BME280;51940;52.126;-0.994;2022-07-11T10:12:22;101255.24;;;32.44;24.80
62948;BME280;51940;52.126;-0.994;2022-07-11T10:14:49;101251.52;;;32.68;24.71
62948;BME280;51940;52.126;-0.994;2022-07-11T10:20:34;101242.54;;;33.02;24.86
62948;BME280;51940;52.126;-0.994;2022-07-11T10:23:37;101243.98;;;33.27;24.48
62948;BME280;51940;52.126;-0.994;2022-07-11T10:29:26;101235.77;;;33.50;23.92
62948;BME280;51940;52.126;-0.994;2022-07-11T10:32:12;101235.73;;;33.45;24.05
62948;BME280;51940;52.126;-0.994;2022-07-11T10:34:39;101233.16;;;33.38;24.47
62948;BME280;51940;52.126;-0.994;2022-07-11T10:37:08;101232.97;;;33.40;24.17
62948;BME280;51940;52.126;-0.994;2022-07-11T10:39:37;101227.56;;;33.44;23.86
62948;BME280;51940;52.126;-0.994;2022-07-11T10:42:04;101227.87;;;33.46;23.94
62948;BME280;51940;52.126;-0.994;2022-07-11T10:44:54;101225.77;;;33.50;23.56
62948;BME280;51940;52.126;-0.994;2022-07-11T10:50:10;101229.61;;;33.45;23.84
62948;BME280;51940;52.126;-0.994;2022-07-11T10:52:44;101227.12;;;33.22;23.95
62948;BME280;51940;52.126;-0.994;2022-07-11T10:55:34;101225.11;;;32.97;24.11
62948;BME280;51940;52.126;-0.994;2022-07-11T10:58:19;101229.20;;;32.92;23.97
62948;BME280;51940;52.126;-0.994;2022-07-11T11:00:48;101228.37;;;32.93;24.67
62948;BME280;51940;52.126;-0.994;2022-07-11T11:03:32;101225.58;;;32.95;24.45
62948;BME280;51940;52.126;-0.994;2022-07-11T11:05:58;101231.69;;;32.88;24.68
62948;BME280;51940;52.126;-0.994;2022-07-11T11:13:42;101225.86;;;32.53;24.90
62948;BME280;51940;52.126;-0.994;2022-07-11T11:16:23;101227.34;;;32.51;24.29
62948;BME280;51940;52.126;-0.994;2022-07-11T11:18:50;101225.52;;;32.39;24.66
62948;BME280;51940;52.126;-0.994;2022-07-11T11:21:19;101219.18;;;32.25;25.22
62948;BME280;51940;52.126;-0.994;2022-07-11T11:23:46;101218.16;;;32.31;25.16
62948;BME280;51940;52.126;-0.994;2022-07-11T11:26:46;101214.70;;;32.56;24.94
62948;BME280;51940;52.126;-0.994;2022-07-11T11:29:18;101210.55;;;32.74;24.71
62948;BME280;51940;52.126;-0.994;2022-07-11T11:31:48;101206.48;;;32.85;24.33
62948;BME280;51940;52.126;-0.994;2022-07-11T11:34:14;101203.98;;;32.94;24.38
62948;BME280;51940;52.126;-0.994;2022-07-11T11:36:40;101209.20;;;33.02;24.39
62948;BME280;51940;52.126;-0.994;2022-07-11T11:39:07;101212.29;;;33.12;24.27
62948;BME280;51940;52.126;-0.994;2022-07-11T11:41:33;101213.04;;;33.10;24.21
62948;BME280;51940;52.126;-0.994;2022-07-11T11:44:01;101213.36;;;33.12;24.17
62948;BME280;51940;52.126;-0.994;2022-07-11T11:46:32;101209.15;;;33.16;24.00
62948;BME280;51940;52.126;-0.994;2022-07-11T11:49:03;101210.45;;;33.14;23.69
62948;BME280;51940;52.126;-0.994;2022-07-11T11:51:31;101205.98;;;33.08;24.14
62948;BME280;51940;52.126;-0.994;2022-07-11T11:53:59;101205.27;;;33.01;24.33
62948;BME280;51940;52.126;-0.994;2022-07-11T11:56:32;101200.01;;;32.90;24.39
62948;BME280;51940;52.126;-0.994;2022-07-11T11:59:10;101206.48;;;32.69;24.26
62948;BME280;51940;52.126;-0.994;2022-07-11T12:01:45;101206.88;;;32.54;24.74
62948;BME280;51940;52.126;-0.994;2022-07-11T12:04:12;101205.36;;;32.58;24.98
62948;BME280;51940;52.126;-0.994;2022-07-11T12:06:47;101202.64;;;32.75;24.75
62948;BME280;51940;52.126;-0.994;2022-07-11T12:09:17;101198.63;;;32.78;24.75
62948;BME280;51940;52.126;-0.994;2022-07-11T12:11:46;101196.29;;;32.85;24.41
62948;BME280;51940;52.126;-0.994;2022-07-11T12:14:13;101194.19;;;32.91;24.16
62948;BME280;51940;52.126;-0.994;2022-07-11T12:16:41;101198.67;;;32.84;24.82
62948;BME280;51940;52.126;-0.994;2022-07-11T12:19:17;101196.34;;;32.90;24.59
62948;BME280;51940;52.126;-0.994;2022-07-11T12:21:51;101195.44;;;32.97;24.25
62948;BME280;51940;52.126;-0.994;2022-07-11T12:24:19;101191.52;;;32.98;23.99
62948;BME280;51940;52.126;-0.994;2022-07-11T12:26:48;101188.54;;;32.92;23.71
62948;BME280;51940;52.126;-0.994;2022-07-11T12:29:19;101186.73;;;32.83;24.20
62948;BME280;51940;52.126;-0.994;2022-07-11T12:31:56;101186.41;;;32.79;24.06
62948;BME280;51940;52.126;-0.994;2022-07-11T12:34:42;101185.39;;;32.81;24.08
62948;BME280;51940;52.126;-0.994;2022-07-11T12:37:20;101182.71;;;32.86;23.77
62948;BME280;51940;52.126;-0.994;2022-07-11T12:39:50;101176.48;;;32.86;23.52
62948;BME280;51940;52.126;-0.994;2022-07-11T12:42:30;101180.28;;;32.90;23.77
62948;BME280;51940;52.126;-0.994;2022-07-11T12:45:04;101174.30;;;32.87;23.58
62948;BME280;51940;52.126;-0.994;2022-07-11T12:47:44;101175.98;;;32.74;23.88
62948;BME280;51940;52.126;-0.994;2022-07-11T12:50:25;101176.02;;;32.65;23.83
62948;BME280;51940;52.126;-0.994;2022-07-11T12:52:53;101173.41;;;32.69;23.45
62948;BME280;51940;52.126;-0.994;2022-07-11T12:55:22;101170.46;;;32.69;23.31
62948;BME280;51940;52.126;-0.994;2022-07-11T12:58:07;101172.02;;;32.66;23.60
62948;BME280;51940;52.126;-0.994;2022-07-11T13:00:35;101170.00;;;32.66;23.58
62948;BME280;51940;52.126;-0.994;2022-07-11T13:03:05;101165.95;;;32.64;23.69